sensor_id;sensor_type;location;lat;lon;timestamp;pressure;altitude;pressure_sealevel;temperature;humidity
55675;BME280;41562;44.330;23.802;2023-01-29T00:00:10;100508.44;;;1.72;100.00
55675;BME280;41562;44.330;23.802;2023-01-29T00:02:38;100519.81;;;1.66;100.00
55675;BME280;41562;44.330;23.802;2023-01-29T00:05:06;100521.41;;;1.73;100.00
55675;BME280;41562;44.330;23.802;2023-01-29T00:07:54;100519.00;;;1.58;100.00
55675;BME280;41562;44.330;23.802;2023-01-29T00:10:23;100526.72;;;1.60;100.00
55675;BME280;41562;44.330;23.802;2023-01-29T00:12:51;100523.88;;;1.55;100.00
55675;BME280;41562;44.330;23.802;2023-01-29T00:15:18;100525.50;;;1.63;100.00
55675;BME280;41562;44.330;23.802;2023-01-29T00:17:45;100528.34;;;1.61;100.00
55675;BME280;41562;44.330;23.802;2023-01-29T00:20:12;100522.25;;;1.54;100.00
55675;BME280;41562;44.330;23.802;2023-01-29T00:22:40;100534.41;;;1.75;100.00
55675;BME280;41562;44.330;23.802;2023-01-29T00:25:07;100529.53;;;1.65;100.00
55675;BME280;41562;44.330;23.802;2023-01-29T00:27:35;100529.94;;;1.75;100.00
55675;BME280;41562;44.330;23.802;2023-01-29T00:30:02;100532.97;;;1.66;100.00
55675;BME280;41562;44.330;23.802;2023-01-29T00:32:29;100530.16;;;1.54;100.00
55675;BME280;41562;44.330;23.802;2023-01-29T00:34:56;100532.00;;;1.47;100.00
55675;BME280;41562;44.330;23.802;2023-01-29T00:37:23;100531.19;;;1.53;100.00
55675;BME280;41562;44.330;23.802;2023-01-29T00:39:50;100534.03;;;1.58;100.00
55675;BME280;41562;44.330;23.802;2023-01-29T00:42:18;100542.53;;;1.60;100.00
55675;BME280;41562;44.330;23.802;2023-01-29T00:44:45;100539.06;;;1.73;100.00
55675;BME280;41562;44.330;23.802;2023-01-29T00:47:12;100549.16;;;1.95;100.00
55675;BME280;41562;44.330;23.802;2023-01-29T00:49:39;100553.03;;;1.86;100.00
55675;BME280;41562;44.330;23.802;2023-01-29T00:52:06;100553.00;;;1.93;100.00
55675;BME280;41562;44.330;23.802;2023-01-29T00:54:33;100555.03;;;1.97;100.00
55675;BME280;41562;44.330;23.802;2023-01-29T00:57:02;100556.22;;;2.15;100.00
55675;BME280;41562;44.330;23.802;2023-01-29T00:59:30;100556.63;;;2.12;100.00
55675;BME280;41562;44.330;23.802;2023-01-29T01:01:57;100566.38;;;1.98;100.00
55675;BME280;41562;44.330;23.802;2023-01-29T01:04:24;100561.56;;;1.75;100.00
55675;BME280;41562;44.330;23.802;2023-01-29T01:06:51;100560.94;;;1.93;100.00
55675;BME280;41562;44.330;23.802;2023-01-29T01:09:18;100562.13;;;1.90;100.00
55675;BME280;41562;44.330;23.802;2023-01-29T01:11:45;100565.81;;;1.89;100.00
55675;BME280;41562;44.330;23.802;2023-01-29T01:14:13;100559.50;;;1.90;100.00
55675;BME280;41562;44.330;23.802;2023-01-29T01:16:40;100561.13;;;1.85;100.00
55675;BME280;41562;44.330;23.802;2023-01-29T01:19:07;100555.84;;;1.91;100.00
55675;BME280;41562;44.330;23.802;2023-01-29T01:21:34;100565.81;;;1.89;100.00
55675;BME280;41562;44.330;23.802;2023-01-29T01:24:01;100572.50;;;1.85;100.00
55675;BME280;41562;44.330;23.802;2023-01-29T01:26:28;100576.31;;;2.02;100.00
55675;BME280;41562;44.330;23.802;2023-01-29T01:28:56;100570.84;;;1.91;100.00
55675;BME280;41562;44.330;23.802;2023-01-29T01:31:23;100572.09;;;1.82;100.00
55675;BME280;41562;44.330;23.802;2023-01-29T01:33:50;100568.47;;;1.83;100.00
55675;BME280;41562;44.330;23.802;2023-01-29T01:36:17;100570.00;;;2.03;100.00
55675;BME280;41562;44.330;23.802;2023-01-29T01:38:44;100566.78;;;2.01;100.00
55675;BME280;41562;44.330;23.802;2023-01-29T01:41:14;100564.56;;;1.98;100.00
55675;BME280;41562;44.330;23.802;2023-01-29T01:43:50;100567.63;;;1.95;100.00
55675;BME280;41562;44.330;23.802;2023-01-29T01:46:18;100568.22;;;1.97;100.00
55675;BME280;41562;44.330;23.802;2023-01-29T01:48:48;100563.34;;;2.08;100.00
55675;BME280;41562;44.330;23.802;2023-01-29T01:51:17;100570.84;;;1.97;100.00
55675;BME280;41562;44.330;23.802;2023-01-29T01:53:51;100572.28;;;1.87;100.00
55675;BME280;41562;44.330;23.802;2023-01-29T01:56:25;100571.28;;;1.94;100.00
55675;BME280;41562;44.330;23.802;2023-01-29T01:58:57;100574.50;;;1.90;100.00
55675;BME280;41562;44.330;23.802;2023-01-29T02:01:25;100572.94;;;1.76;100.00
55675;BME280;41562;44.330;23.802;2023-01-29T02:04:00;100570.47;;;1.87;100.00
55675;BME280;41562;44.330;23.802;2023-01-29T02:06:29;100567.41;;;1.84;100.00
55675;BME280;41562;44.330;23.802;2023-01-29T02:09:01;100569.63;;;2.00;100.00
55675;BME280;41562;44.330;23.802;2023-01-29T02:11:29;100570.84;;;1.91;100.00
55675;BME280;41562;44.330;23.802;2023-01-29T02:13:56;100574.31;;;1.91;100.00
55675;BME280;41562;44.330;23.802;2023-01-29T02:16:23;100575.28;;;2.03;100.00
55675;BME280;41562;44.330;23.802;2023-01-29T02:18:51;100573.25;;;2.12;100.00
55675;BME280;41562;44.330;23.802;2023-01-29T02:24:27;100569.84;;;1.85;100.00
55675;BME280;41562;44.330;23.802;2023-01-29T02:27:06;100568.47;;;1.76;100.00
55675;BME280;41562;44.330;23.802;2023-01-29T02:30:04;100576.34;;;1.89;100.00
55675;BME280;41562;44.330;23.802;2023-01-29T02:35:27;100566.66;;;1.77;100.00
55675;BME280;41562;44.330;23.802;2023-01-29T02:44:10;100574.75;;;1.82;100.00
55675;BME280;41562;44.330;23.802;2023-01-29T02:46:51;100578.19;;;1.76;100.00
55675;BME280;41562;44.330;23.802;2023-01-29T02:49:33;100568.47;;;1.76;100.00
55675;BME280;41562;44.330;23.802;2023-01-29T02:52:11;100566.84;;;1.82;100.00
55675;BME280;41562;44.330;23.802;2023-01-29T02:57:31;100565.84;;;1.63;100.00
55675;BME280;41562;44.330;23.802;2023-01-29T03:00:11;100568.88;;;1.60;100.00
55675;BME280;41562;44.330;23.802;2023-01-29T03:02:45;100568.69;;;1.42;100.00
55675;BME280;41562;44.330;23.802;2023-01-29T03:05:19;100569.28;;;1.31;100.00
55675;BME280;41562;44.330;23.802;2023-01-29T03:07:52;100567.25;;;1.46;100.00
55675;BME280;41562;44.330;23.802;2023-01-29T03:10:38;100562.78;;;1.66;100.00
55675;BME280;41562;44.330;23.802;2023-01-29T03:13:18;100551.44;;;1.59;100.00
55675;BME280;41562;44.330;23.802;2023-01-29T03:15:48;100559.34;;;1.66;100.00
55675;BME280;41562;44.330;23.802;2023-01-29T03:18:22;100564.59;;;1.66;100.00
55675;BME280;41562;44.330;23.802;2023-01-29T03:20:53;100566.03;;;1.81;100.00
55675;BME280;41562;44.330;23.802;2023-01-29T03:23:26;100571.31;;;1.68;100.00
55675;BME280;41562;44.330;23.802;2023-01-29T03:25:57;100566.03;;;1.81;100.00
55675;BME280;41562;44.330;23.802;2023-01-29T03:28:26;100568.66;;;1.81;100.00
55675;BME280;41562;44.330;23.802;2023-01-29T03:31:00;100580.03;;;1.62;100.00
55675;BME280;41562;44.330;23.802;2023-01-29T03:33:31;100574.94;;;1.67;100.00
55675;BME280;41562;44.330;23.802;2023-01-29T03:36:07;100587.91;;;1.82;100.00
55675;BME280;41562;44.330;23.802;2023-01-29T03:38:36;100585.47;;;1.80;100.00
55675;BME280;41562;44.330;23.802;2023-01-29T03:41:22;100589.56;;;1.63;100.00
55675;BME280;41562;44.330;23.802;2023-01-29T03:44:37;100586.72;;;1.58;100.00
55675;BME280;41562;44.330;23.802;2023-01-29T03:46:55;100579.03;;;1.63;100.00
55675;BME280;41562;44.330;23.802;2023-01-29T03:56:01;100581.25;;;1.46;100.00
55675;BME280;41562;44.330;23.802;2023-01-29T03:58:57;100584.28;;;1.50;100.00
55675;BME280;41562;44.330;23.802;2023-01-29T04:01:58;100580.03;;;1.62;100.00
55675;BME280;41562;44.330;23.802;2023-01-29T04:04:26;100590.97;;;1.59;100.00
55675;BME280;41562;44.330;23.802;2023-01-29T04:07:03;100588.56;;;1.64;100.00
55675;BME280;41562;44.330;23.802;2023-01-29T04:09:39;100591.56;;;1.74;100.00
55675;BME280;41562;44.330;23.802;2023-01-29T04:12:09;100583.28;;;1.64;100.00
55675;BME280;41562;44.330;23.802;2023-01-29T04:14:37;100589.13;;;1.79;100.00
55675;BME280;41562;44.330;23.802;2023-01-29T04:17:11;100586.28;;;1.81;100.00
55675;BME280;41562;44.330;23.802;2023-01-29T04:19:40;100592.78;;;1.78;100.00
55675;BME280;41562;44.330;23.802;2023-01-29T04:22:12;100599.28;;;1.82;100.00
55675;BME280;41562;44.330;23.802;2023-01-29T04:24:41;100599.28;;;1.69;100.00
55675;BME280;41562;44.330;23.802;2023-01-29T04:27:25;100612.84;;;1.73;100.00
55675;BME280;41562;44.330;23.802;2023-01-29T04:29:59;100608.81;;;1.70;100.00
55675;BME280;41562;44.330;23.802;2023-01-29T04:41:31;100618.13;;;1.86;100.00
55675;BME280;41562;44.330;23.802;2023-01-29T04:52:04;100643.16;;;6.60;99.15
55675;BME280;41562;44.330;23.802;2023-01-29T05:00:12;100654.88;;;7.78;91.39
55675;BME280;41562;44.330;23.802;2023-01-29T05:02:43;100649.31;;;4.78;97.15
55675;BME280;41562;44.330;23.802;2023-01-29T05:05:13;100654.78;;;4.47;100.00
55675;BME280;41562;44.330;23.802;2023-01-29T05:07:43;100648.28;;;3.25;100.00
55675;BME280;41562;44.330;23.802;2023-01-29T05:10:13;100651.44;;;3.40;100.00
55675;BME280;41562;44.330;23.802;2023-01-29T05:12:45;100658.03;;;3.56;100.00
55675;BME280;41562;44.330;23.802;2023-01-29T05:15:19;100662.84;;;3.66;100.00
55675;BME280;41562;44.330;23.802;2023-01-29T05:17:49;100659.84;;;5.14;100.00
55675;BME280;41562;44.330;23.802;2023-01-29T05:20:17;100658.53;;;3.71;100.00
55675;BME280;41562;44.330;23.802;2023-01-29T05:22:45;100658.97;;;3.37;100.00
55675;BME280;41562;44.330;23.802;2023-01-29T05:25:23;100649.69;;;2.32;100.00
55675;BME280;41562;44.330;23.802;2023-01-29T05:27:51;100645.66;;;2.10;100.00
55675;BME280;41562;44.330;23.802;2023-01-29T05:30:18;100652.00;;;1.89;100.00
55675;BME280;41562;44.330;23.802;2023-01-29T05:32:45;100656.25;;;1.70;100.00
55675;BME280;41562;44.330;23.802;2023-01-29T05:35:13;100655.84;;;1.60;100.00
55675;BME280;41562;44.330;23.802;2023-01-29T05:37:40;100647.13;;;1.59;100.00
55675;BME280;41562;44.330;23.802;2023-01-29T05:40:08;100647.53;;;1.56;100.00
55675;BME280;41562;44.330;23.802;2023-01-29T05:42:35;100653.59;;;1.31;100.00
55675;BME280;41562;44.330;23.802;2023-01-29T05:45:03;100652.34;;;1.27;100.00
55675;BME280;41562;44.330;23.802;2023-01-29T05:47:30;100654.97;;;1.27;100.00
55675;BME280;41562;44.330;23.802;2023-01-29T05:49:58;100648.91;;;1.19;100.00
55675;BME280;41562;44.330;23.802;2023-01-29T05:52:25;100649.72;;;1.27;100.00
55675;BME280;41562;44.330;23.802;2023-01-29T05:54:52;100648.69;;;1.28;100.00
55675;BME280;41562;44.330;23.802;2023-01-29T05:57:22;100654.97;;;1.27;100.00
55675;BME280;41562;44.330;23.802;2023-01-29T05:59:49;100656.00;;;1.19;100.00
55675;BME280;41562;44.330;23.802;2023-01-29T06:02:16;100663.28;;;1.17;100.00
55675;BME280;41562;44.330;23.802;2023-01-29T06:04:43;100673.78;;;1.10;100.00
55675;BME280;41562;44.330;23.802;2023-01-29T06:07:12;100678.25;;;1.10;100.00
55675;BME280;41562;44.330;23.802;2023-01-29T06:09:39;100679.47;;;1.20;100.00
55675;BME280;41562;44.330;23.802;2023-01-29T06:12:07;100682.38;;;1.39;100.00
55675;BME280;41562;44.330;23.802;2023-01-29T06:14:34;100683.56;;;1.30;100.00
55675;BME280;41562;44.330;23.802;2023-01-29T06:17:01;100675.88;;;1.35;100.00
55675;BME280;41562;44.330;23.802;2023-01-29T06:19:31;100682.38;;;1.39;100.00
55675;BME280;41562;44.330;23.802;2023-01-29T06:21:58;100688.44;;;1.26;100.00
55675;BME280;41562;44.330;23.802;2023-01-29T06:24:25;100696.53;;;1.25;100.00
55675;BME280;41562;44.330;23.802;2023-01-29T06:26:52;100693.25;;;1.23;100.00
55675;BME280;41562;44.330;23.802;2023-01-29T06:29:22;100691.63;;;1.21;100.00
55675;BME280;41562;44.330;23.802;2023-01-29T06:31:49;100705.06;;;1.40;100.00
55675;BME280;41562;44.330;23.802;2023-01-29T06:34:16;100701.22;;;1.42;100.00
55675;BME280;41562;44.330;23.802;2023-01-29T06:36:44;100706.25;;;1.31;100.00
55675;BME280;41562;44.330;23.802;2023-01-29T06:39:11;100704.66;;;1.43;100.00
55675;BME280;41562;44.330;23.802;2023-01-29T06:41:38;100700.19;;;1.37;100.00
55675;BME280;41562;44.330;23.802;2023-01-29T06:44:05;100701.81;;;1.31;100.00
55675;BME280;41562;44.330;23.802;2023-01-29T06:46:32;100697.13;;;1.27;100.00
55675;BME280;41562;44.330;23.802;2023-01-29T06:48:59;100703.81;;;1.29;100.00
55675;BME280;41562;44.330;23.802;2023-01-29T06:51:26;100720.06;;;1.33;100.00
55675;BME280;41562;44.330;23.802;2023-01-29T06:53:54;100716.81;;;1.31;100.00
55675;BME280;41562;44.330;23.802;2023-01-29T06:56:22;100721.28;;;1.37;100.00
55675;BME280;41562;44.330;23.802;2023-01-29T06:58:49;100720.06;;;1.52;100.00
55675;BME280;41562;44.330;23.802;2023-01-29T07:01:16;100725.41;;;1.85;100.00
55675;BME280;41562;44.330;23.802;2023-01-29T07:04:04;100728.22;;;1.77;100.00
55675;BME280;41562;44.330;23.802;2023-01-29T07:06:32;100728.78;;;1.53;100.00
55675;BME280;41562;44.330;23.802;2023-01-29T07:08:59;100727.59;;;1.55;100.00
55675;BME280;41562;44.330;23.802;2023-01-29T07:11:26;100735.13;;;1.78;100.00
55675;BME280;41562;44.330;23.802;2023-01-29T07:13:54;100739.78;;;1.70;100.00
55675;BME280;41562;44.330;23.802;2023-01-29T07:16:21;100742.44;;;1.76;100.00
55675;BME280;41562;44.330;23.802;2023-01-29T07:18:48;100739.16;;;1.68;100.00
55675;BME280;41562;44.330;23.802;2023-01-29T07:21:15;100743.63;;;1.67;100.00
55675;BME280;41562;44.330;23.802;2023-01-29T07:23:42;100742.44;;;1.76;100.00
55675;BME280;41562;44.330;23.802;2023-01-29T07:26:10;100741.63;;;1.82;100.00
55675;BME280;41562;44.330;23.802;2023-01-29T07:28:38;100741.22;;;1.85;100.00
55675;BME280;41562;44.330;23.802;2023-01-29T07:31:07;100741.84;;;2.00;100.00
55675;BME280;41562;44.330;23.802;2023-01-29T07:33:34;100750.75;;;1.86;100.00
55675;BME280;41562;44.330;23.802;2023-01-29T07:36:06;100756.03;;;1.86;100.00
55675;BME280;41562;44.330;23.802;2023-01-29T07:38:33;100749.13;;;1.98;100.00
55675;BME280;41562;44.330;23.802;2023-01-29T07:41:00;100753.81;;;1.83;100.00
55675;BME280;41562;44.330;23.802;2023-01-29T07:43:29;100761.91;;;1.88;100.00
55675;BME280;41562;44.330;23.802;2023-01-29T07:46:01;100759.69;;;1.98;100.00
55675;BME280;41562;44.330;23.802;2023-01-29T07:48:28;100761.94;;;2.01;100.00
55675;BME280;41562;44.330;23.802;2023-01-29T07:50:56;100761.69;;;1.96;100.00
55675;BME280;41562;44.330;23.802;2023-01-29T07:53:24;100765.16;;;2.03;100.00
55675;BME280;41562;44.330;23.802;2023-01-29T07:55:51;100765.59;;;2.14;100.00
55675;BME280;41562;44.330;23.802;2023-01-29T07:58:18;100768.00;;;1.95;100.00
55675;BME280;41562;44.330;23.802;2023-01-29T08:00:46;100767.59;;;2.12;100.00
55675;BME280;41562;44.330;23.802;2023-01-29T08:03:16;100772.88;;;1.92;100.00
55675;BME280;41562;44.330;23.802;2023-01-29T08:05:44;100766.56;;;1.86;100.00
55675;BME280;41562;44.330;23.802;2023-01-29T08:08:11;100775.28;;;1.87;100.00
55675;BME280;41562;44.330;23.802;2023-01-29T08:10:39;100768.38;;;1.73;100.00
55675;BME280;41562;44.330;23.802;2023-01-29T08:13:06;100767.19;;;1.82;100.00
55675;BME280;41562;44.330;23.802;2023-01-29T08:15:35;100765.97;;;1.97;100.00
55675;BME280;41562;44.330;23.802;2023-01-29T08:18:05;100768.44;;;2.19;100.00
55675;BME280;41562;44.330;23.802;2023-01-29T08:20:32;100772.06;;;2.24;100.00
55675;BME280;41562;44.330;23.802;2023-01-29T08:23:04;100778.50;;;2.88;100.00
55675;BME280;41562;44.330;23.802;2023-01-29T08:25:33;100770.56;;;2.94;100.00
55675;BME280;41562;44.330;23.802;2023-01-29T08:28:01;100780.94;;;2.89;100.00
55675;BME280;41562;44.330;23.802;2023-01-29T08:30:30;100788.66;;;2.84;100.00
55675;BME280;41562;44.330;23.802;2023-01-29T08:32:58;100791.53;;;3.40;100.00
55675;BME280;41562;44.330;23.802;2023-01-29T08:35:25;100788.94;;;3.72;100.00
55675;BME280;41562;44.330;23.802;2023-01-29T08:38:00;100790.66;;;4.16;100.00
55675;BME280;41562;44.330;23.802;2023-01-29T08:40:28;100793.09;;;3.86;100.00
55675;BME280;41562;44.330;23.802;2023-01-29T08:42:59;100792.94;;;3.81;100.00
55675;BME280;41562;44.330;23.802;2023-01-29T08:45:29;100796.16;;;3.51;100.00
55675;BME280;41562;44.330;23.802;2023-01-29T08:47:56;100790.63;;;3.08;100.00
55675;BME280;41562;44.330;23.802;2023-01-29T08:50:24;100792.25;;;3.09;100.00
55675;BME280;41562;44.330;23.802;2023-01-29T08:52:58;100795.06;;;3.21;100.00
55675;BME280;41562;44.330;23.802;2023-01-29T08:55:27;100797.44;;;3.29;100.00
55675;BME280;41562;44.330;23.802;2023-01-29T08:57:54;100800.31;;;3.28;100.00
55675;BME280;41562;44.330;23.802;2023-01-29T09:00:21;100799.56;;;3.58;100.00
55675;BME280;41562;44.330;23.802;2023-01-29T09:02:49;100794.34;;;3.83;100.00
55675;BME280;41562;44.330;23.802;2023-01-29T09:05:16;100796.41;;;3.75;100.00
55675;BME280;41562;44.330;23.802;2023-01-29T09:07:44;100803.09;;;3.84;100.00
55675;BME280;41562;44.330;23.802;2023-01-29T09:10:11;100810.16;;;4.46;100.00
55675;BME280;41562;44.330;23.802;2023-01-29T09:12:38;100806.09;;;4.43;100.00
55675;BME280;41562;44.330;23.802;2023-01-29T09:15:06;100798.47;;;4.35;100.00
55675;BME280;41562;44.330;23.802;2023-01-29T09:17:33;100797.25;;;4.31;100.00
55675;BME280;41562;44.330;23.802;2023-01-29T09:20:00;100795.75;;;4.17;100.00
55675;BME280;41562;44.330;23.802;2023-01-29T09:22:28;100798.97;;;4.19;100.00
55675;BME280;41562;44.330;23.802;2023-01-29T09:24:56;100800.84;;;3.81;100.00
55675;BME280;41562;44.330;23.802;2023-01-29T09:27:23;100788.28;;;3.76;100.00
55675;BME280;41562;44.330;23.802;2023-01-29T09:29:50;100791.41;;;3.98;100.00
55675;BME280;41562;44.330;23.802;2023-01-29T09:32:18;100787.97;;;4.22;100.00
55675;BME280;41562;44.330;23.802;2023-01-29T09:35:05;100782.50;;;4.67;100.00
55675;BME280;41562;44.330;23.802;2023-01-29T09:37:32;100771.44;;;5.06;100.00
55675;BME280;41562;44.330;23.802;2023-01-29T09:39:59;100773.94;;;5.38;100.00
55675;BME280;41562;44.330;23.802;2023-01-29T09:42:51;100766.34;;;5.71;100.00
55675;BME280;41562;44.330;23.802;2023-01-29T09:45:26;100757.22;;;5.67;98.88
55675;BME280;41562;44.330;23.802;2023-01-29T09:48:02;100764.53;;;5.83;93.60
55675;BME280;41562;44.330;23.802;2023-01-29T09:50:40;100763.69;;;5.71;93.93
55675;BME280;41562;44.330;23.802;2023-01-29T09:53:17;100756.44;;;5.78;93.42
55675;BME280;41562;44.330;23.802;2023-01-29T09:58:30;100754.78;;;7.52;88.53
55675;BME280;41562;44.330;23.802;2023-01-29T10:01:15;100754.50;;;6.27;93.72
55675;BME280;41562;44.330;23.802;2023-01-29T10:21:03;100750.72;;;5.81;96.72
55675;BME280;41562;44.330;23.802;2023-01-29T10:23:41;100742.75;;;5.81;97.63
55675;BME280;41562;44.330;23.802;2023-01-29T10:26:12;100735.56;;;5.82;96.60
55675;BME280;41562;44.330;23.802;2023-01-29T10:28:44;100732.88;;;5.70;96.36
55675;BME280;41562;44.330;23.802;2023-01-29T10:31:21;100728.50;;;5.94;100.00
55675;BME280;41562;44.330;23.802;2023-01-29T10:33:53;100723.97;;;5.94;95.64
55675;BME280;41562;44.330;23.802;2023-01-29T10:36:37;100728.19;;;5.84;98.11
55675;BME280;41562;44.330;23.802;2023-01-29T10:39:14;100731.63;;;5.61;96.58
55675;BME280;41562;44.330;23.802;2023-01-29T10:47:53;100718.72;;;5.76;95.39
55675;BME280;41562;44.330;23.802;2023-01-29T10:50:42;100714.66;;;6.15;100.00
55675;BME280;41562;44.330;23.802;2023-01-29T10:58:58;100699.22;;;6.24;94.49
55675;BME280;41562;44.330;23.802;2023-01-29T11:01:27;100700.88;;;8.06;96.96
55675;BME280;41562;44.330;23.802;2023-01-29T11:03:56;100693.69;;;6.89;92.63
55675;BME280;41562;44.330;23.802;2023-01-29T11:06:29;100688.81;;;6.34;93.61
55675;BME280;41562;44.330;23.802;2023-01-29T11:11:43;100688.81;;;6.11;97.78
55675;BME280;41562;44.330;23.802;2023-01-29T11:14:27;100681.56;;;5.76;96.61
55675;BME280;41562;44.330;23.802;2023-01-29T11:16:56;100672.78;;;5.64;97.06
55675;BME280;41562;44.330;23.802;2023-01-29T11:19:38;100670.47;;;5.56;96.22
55675;BME280;41562;44.330;23.802;2023-01-29T11:22:13;100677.59;;;5.97;96.68
55675;BME280;41562;44.330;23.802;2023-01-29T11:24:41;100679.22;;;6.10;94.85
55675;BME280;41562;44.330;23.802;2023-01-29T11:27:23;100674.84;;;6.38;90.53
55675;BME280;41562;44.330;23.802;2023-01-29T11:29:52;100673.72;;;8.09;93.52
55675;BME280;41562;44.330;23.802;2023-01-29T11:37:36;100671.78;;;8.38;80.03
55675;BME280;41562;44.330;23.802;2023-01-29T11:42:50;100653.25;;;7.93;85.94
55675;BME280;41562;44.330;23.802;2023-01-29T11:45:30;100653.53;;;7.30;86.92
55675;BME280;41562;44.330;23.802;2023-01-29T11:47:58;100641.16;;;7.52;86.65
55675;BME280;41562;44.330;23.802;2023-01-29T11:50:28;100637.94;;;7.50;96.80
55675;BME280;41562;44.330;23.802;2023-01-29T11:53:00;100643.38;;;7.27;89.18
55675;BME280;41562;44.330;23.802;2023-01-29T11:55:31;100639.34;;;7.24;86.70
55675;BME280;41562;44.330;23.802;2023-01-29T11:58:20;100644.81;;;7.35;86.58
55675;BME280;41562;44.330;23.802;2023-01-29T12:00:51;100643.75;;;7.81;90.91
55675;BME280;41562;44.330;23.802;2023-01-29T12:03:39;100643.56;;;8.04;84.02
55675;BME280;41562;44.330;23.802;2023-01-29T12:08:56;100631.88;;;7.72;85.77
55675;BME280;41562;44.330;23.802;2023-01-29T12:11:32;100635.50;;;7.99;92.33
55675;BME280;41562;44.330;23.802;2023-01-29T12:14:02;100637.03;;;7.95;84.18
55675;BME280;41562;44.330;23.802;2023-01-29T12:16:35;100639.38;;;8.08;83.75
55675;BME280;41562;44.330;23.802;2023-01-29T12:19:24;100644.03;;;8.18;82.50
55675;BME280;41562;44.330;23.802;2023-01-29T12:22:00;100633.91;;;8.36;85.94
55675;BME280;41562;44.330;23.802;2023-01-29T12:24:39;100637.88;;;8.17;81.65
55675;BME280;41562;44.330;23.802;2023-01-29T12:27:33;100626.31;;;7.90;82.84
55675;BME280;41562;44.330;23.802;2023-01-29T12:32:52;100623.75;;;7.61;88.30
55675;BME280;41562;44.330;23.802;2023-01-29T12:35:25;100631.94;;;7.26;86.93
55675;BME280;41562;44.330;23.802;2023-01-29T12:40:56;100622.41;;;7.14;90.94
55675;BME280;41562;44.330;23.802;2023-01-29T12:46:01;100630.75;;;7.06;85.79
55675;BME280;41562;44.330;23.802;2023-01-29T12:48:36;100628.28;;;6.88;84.70
55675;BME280;41562;44.330;23.802;2023-01-29T12:51:13;100628.56;;;7.03;88.42
55675;BME280;41562;44.330;23.802;2023-01-29T12:54:04;100633.66;;;7.04;88.29
55675;BME280;41562;44.330;23.802;2023-01-29T12:56:43;100632.53;;;7.00;88.09
55675;BME280;41562;44.330;23.802;2023-01-29T12:59:29;100634.66;;;6.86;88.24
55675;BME280;41562;44.330;23.802;2023-01-29T13:04:59;100636.06;;;7.06;87.52
55675;BME280;41562;44.330;23.802;2023-01-29T13:07:36;100640.34;;;7.07;88.03
55675;BME280;41562;44.330;23.802;2023-01-29T13:10:12;100634.72;;;6.63;94.59
55675;BME280;41562;44.330;23.802;2023-01-29T13:13:34;100636.84;;;6.78;99.14
55675;BME280;41562;44.330;23.802;2023-01-29T13:15:37;100641.38;;;6.26;95.22
55675;BME280;41562;44.330;23.802;2023-01-29T13:21:00;100643.63;;;6.57;97.30
55675;BME280;41562;44.330;23.802;2023-01-29T13:23:31;100642.00;;;6.68;95.09
55675;BME280;41562;44.330;23.802;2023-01-29T13:26:00;100638.00;;;6.42;96.49
55675;BME280;41562;44.330;23.802;2023-01-29T13:28:28;100645.41;;;6.17;95.66
55675;BME280;41562;44.330;23.802;2023-01-29T13:31:30;100636.75;;;6.21;98.42
55675;BME280;41562;44.330;23.802;2023-01-29T13:36:53;100635.00;;;6.15;97.28
55675;BME280;41562;44.330;23.802;2023-01-29T13:41:56;100639.41;;;6.21;100.00
55675;BME280;41562;44.330;23.802;2023-01-29T13:44:33;100648.06;;;6.17;98.68
55675;BME280;41562;44.330;23.802;2023-01-29T13:47:09;100638.91;;;5.78;98.38
55675;BME280;41562;44.330;23.802;2023-01-29T13:49:42;100650.22;;;5.73;99.57
55675;BME280;41562;44.330;23.802;2023-01-29T14:10:29;100650.47;;;5.30;100.00
55675;BME280;41562;44.330;23.802;2023-01-29T14:15:35;100649.53;;;5.24;100.00
55675;BME280;41562;44.330;23.802;2023-01-29T14:18:03;100645.44;;;5.10;100.00
55675;BME280;41562;44.330;23.802;2023-01-29T14:20:51;100640.91;;;4.99;100.00
55675;BME280;41562;44.330;23.802;2023-01-29T14:26:00;100635.50;;;4.58;100.00
55675;BME280;41562;44.330;23.802;2023-01-29T14:28:30;100641.31;;;4.66;100.00
55675;BME280;41562;44.330;23.802;2023-01-29T14:30:58;100638.44;;;4.68;100.00
55675;BME280;41562;44.330;23.802;2023-01-29T14:33:38;100639.97;;;4.57;100.00
55675;BME280;41562;44.330;23.802;2023-01-29T14:36:11;100638.16;;;4.21;100.00
55675;BME280;41562;44.330;23.802;2023-01-29T14:38:45;100639.16;;;4.02;100.00
55675;BME280;41562;44.330;23.802;2023-01-29T14:41:24;100635.84;;;4.07;100.00
55675;BME280;41562;44.330;23.802;2023-01-29T14:46:58;100643.25;;;3.73;100.00
55675;BME280;41562;44.330;23.802;2023-01-29T14:49:54;100645.28;;;5.35;100.00
55675;BME280;41562;44.330;23.802;2023-01-29T14:52:37;100642.59;;;5.23;98.82
55675;BME280;41562;44.330;23.802;2023-01-29T14:55:34;100641.38;;;4.60;100.00
55675;BME280;41562;44.330;23.802;2023-01-29T14:58:03;100644.94;;;4.35;100.00
55675;BME280;41562;44.330;23.802;2023-01-29T15:00:36;100646.22;;;4.26;100.00
55675;BME280;41562;44.330;23.802;2023-01-29T15:03:36;100641.81;;;3.77;100.00
55675;BME280;41562;44.330;23.802;2023-01-29T15:06:07;100639.88;;;3.91;100.00
55675;BME280;41562;44.330;23.802;2023-01-29T15:08:46;100643.03;;;3.75;100.00
55675;BME280;41562;44.330;23.802;2023-01-29T15:11:30;100645.06;;;3.79;100.00
55675;BME280;41562;44.330;23.802;2023-01-29T15:16:50;100651.78;;;3.50;100.00
55675;BME280;41562;44.330;23.802;2023-01-29T15:19:27;100645.03;;;3.23;100.00
55675;BME280;41562;44.330;23.802;2023-01-29T15:24:32;100642.44;;;3.48;100.00
55675;BME280;41562;44.330;23.802;2023-01-29T15:27:00;100639.16;;;3.21;100.00